Terminal Aerodrome Forecast
Issued by NWS Corpus Christi, TX

Home | Current Version | Previous Version | Text Only | Print | Product List | Glossary On
Versions: 1 2 3 4 5 6 7 8 9 10 11 12 13 14 15 16 17 18 19 20 21
000
FTUS44 KCRP 191700
TAFCRP
TAF
KCRP 191731Z 1918/2018 12012G20KT P6SM SCT050
     FM200000 13010KT P6SM SCT015 BKN080
     FM200600 14008KT P6SM OVC015
     FM201000 13008KT P6SM OVC009
     FM201500 13012KT P6SM OVC015=

USA.gov is the U.S. government's official web portal to all federal, state and local government web resources and services.